Huvudsida
METAR-TAF:

METAR-TAF

Flygplatser :

Jönköping, Sverige

Jönköping Airport

latitud: 57-46N, longitud: 014-05E, höjd: 226 m

Aktuellt väderrapport

Denna rapport gjordes för 22 minuter sedan, klockan 02:50 UTC
Stilla vind
Temperatur -4°C
Fuktighet 93%
Tryck 997 hPa
Sikt 10 km eller mer

METAR: ESGJ 190250Z AUTO 00000KT 9999 OVC040/// M04/M05 Q0997 R19/790050

Tid: 04:12 (03:12 UTC)

Väderprognos

Denna rapport gjordes för 3 timmar och 42 minuter sedan, klockan 23:30 UTC
Prognos gäller från 19 kl. 00 UTC till 19 kl. 03 UTC
Vind 2 kt varierande vindriktning
Sikt 10 km eller mer
Brutna moln på en höjd av 3500 ft
Sannolikhet 40%
från 19 kl. 00 UTC till 19 kl. 03 UTC
Brutna moln på en höjd av 800 ft

TAF: ESGJ 182330Z 1900/1903 VRB02KT 9999 BKN035 PROB40 1900/1903 BKN008

Aktuella väderrapporter och prognoser från 4000 flygplatser (METAR- och TAF-rapporter).

De tillgängliga stationerna syns som gula och röda prickar på kartan.

För musen över prickarna för att se namnen på stationerna.

Klicka sedan för att få väderrapporter och prognoser.

För att ändra kartan: Klicka på de gröna knapparna med ett svart kors på för att zooma in; den gröna knappen med ett streck på för att zooma ut; eller på de gröna pilarna för angränsande kartor.


METAR-TAF: